sensor_id;sensor_type;location;lat;lon;timestamp;P1;durP1;ratioP1;P2;durP2;ratioP2
15716;SDS011;7960;50.908;4.204;2022-08-14T00:01:19;5.57;;;5.10;;
15716;SDS011;7960;50.908;4.204;2022-08-14T00:03:46;5.63;;;5.10;;
15716;SDS011;7960;50.908;4.204;2022-08-14T00:06:14;10.57;;;5.30;;
15716;SDS011;7960;50.908;4.204;2022-08-14T00:08:41;5.33;;;4.83;;
15716;SDS011;7960;50.908;4.204;2022-08-14T00:11:10;7.27;;;5.27;;
15716;SDS011;7960;50.908;4.204;2022-08-14T00:13:37;6.20;;;5.33;;
15716;SDS011;7960;50.908;4.204;2022-08-14T00:16:04;5.57;;;5.07;;
15716;SDS011;7960;50.908;4.204;2022-08-14T00:18:31;5.50;;;4.97;;
15716;SDS011;7960;50.908;4.204;2022-08-14T00:20:58;8.07;;;4.90;;
15716;SDS011;7960;50.908;4.204;2022-08-14T00:23:25;5.93;;;5.23;;
15716;SDS011;7960;50.908;4.204;2022-08-14T00:25:53;5.90;;;5.40;;
15716;SDS011;7960;50.908;4.204;2022-08-14T00:28:23;6.47;;;5.20;;
15716;SDS011;7960;50.908;4.204;2022-08-14T00:30:52;6.93;;;5.13;;
15716;SDS011;7960;50.908;4.204;2022-08-14T00:33:21;8.17;;;5.40;;
15716;SDS011;7960;50.908;4.204;2022-08-14T00:35:49;6.87;;;4.97;;
15716;SDS011;7960;50.908;4.204;2022-08-14T00:38:17;8.37;;;5.00;;
15716;SDS011;7960;50.908;4.204;2022-08-14T00:40:44;5.67;;;5.03;;
15716;SDS011;7960;50.908;4.204;2022-08-14T00:43:11;5.87;;;5.17;;
15716;SDS011;7960;50.908;4.204;2022-08-14T00:45:39;4.67;;;4.30;;
15716;SDS011;7960;50.908;4.204;2022-08-14T00:48:07;5.37;;;4.87;;
15716;SDS011;7960;50.908;4.204;2022-08-14T00:50:34;6.00;;;4.47;;
15716;SDS011;7960;50.908;4.204;2022-08-14T00:53:02;5.17;;;4.77;;
15716;SDS011;7960;50.908;4.204;2022-08-14T00:55:29;5.40;;;4.87;;
15716;SDS011;7960;50.908;4.204;2022-08-14T00:57:56;6.00;;;4.97;;
15716;SDS011;7960;50.908;4.204;2022-08-14T01:00:44;5.60;;;5.10;;
15716;SDS011;7960;50.908;4.204;2022-08-14T01:03:14;6.63;;;5.33;;
15716;SDS011;7960;50.908;4.204;2022-08-14T01:05:43;5.27;;;4.83;;
15716;SDS011;7960;50.908;4.204;2022-08-14T01:08:14;5.43;;;4.50;;
15716;SDS011;7960;50.908;4.204;2022-08-14T01:10:43;5.00;;;4.50;;
15716;SDS011;7960;50.908;4.204;2022-08-14T01:13:16;5.30;;;4.80;;
15716;SDS011;7960;50.908;4.204;2022-08-14T01:15:47;6.20;;;4.73;;
15716;SDS011;7960;50.908;4.204;2022-08-14T01:18:16;6.30;;;4.60;;
15716;SDS011;7960;50.908;4.204;2022-08-14T01:21:03;4.80;;;4.43;;
15716;SDS011;7960;50.908;4.204;2022-08-14T01:23:47;5.30;;;4.80;;
15716;SDS011;7960;50.908;4.204;2022-08-14T01:26:16;5.40;;;4.40;;
15716;SDS011;7960;50.908;4.204;2022-08-14T01:28:45;5.17;;;4.37;;
15716;SDS011;7960;50.908;4.204;2022-08-14T01:31:14;7.10;;;4.43;;
15716;SDS011;7960;50.908;4.204;2022-08-14T01:33:43;9.33;;;4.70;;
15716;SDS011;7960;50.908;4.204;2022-08-14T01:36:12;5.50;;;4.77;;
15716;SDS011;7960;50.908;4.204;2022-08-14T01:38:42;5.90;;;4.43;;
15716;SDS011;7960;50.908;4.204;2022-08-14T01:41:13;5.13;;;4.60;;
15716;SDS011;7960;50.908;4.204;2022-08-14T01:43:45;4.80;;;4.40;;
15716;SDS011;7960;50.908;4.204;2022-08-14T01:46:15;4.87;;;4.37;;
15716;SDS011;7960;50.908;4.204;2022-08-14T01:48:43;5.43;;;4.73;;
15716;SDS011;7960;50.908;4.204;2022-08-14T01:51:11;9.23;;;4.83;;
15716;SDS011;7960;50.908;4.204;2022-08-14T01:53:40;5.40;;;4.87;;
15716;SDS011;7960;50.908;4.204;2022-08-14T01:56:11;5.03;;;4.63;;
15716;SDS011;7960;50.908;4.204;2022-08-14T01:58:42;6.23;;;4.80;;
15716;SDS011;7960;50.908;4.204;2022-08-14T02:01:12;7.57;;;4.77;;
15716;SDS011;7960;50.908;4.204;2022-08-14T02:03:40;5.73;;;5.00;;
15716;SDS011;7960;50.908;4.204;2022-08-14T02:06:07;5.30;;;4.73;;
15716;SDS011;7960;50.908;4.204;2022-08-14T02:08:35;5.60;;;4.83;;
15716;SDS011;7960;50.908;4.204;2022-08-14T02:11:05;5.20;;;4.70;;
15716;SDS011;7960;50.908;4.204;2022-08-14T02:13:47;6.60;;;4.80;;
15716;SDS011;7960;50.908;4.204;2022-08-14T02:16:16;4.93;;;4.53;;
15716;SDS011;7960;50.908;4.204;2022-08-14T02:18:45;5.20;;;4.70;;
15716;SDS011;7960;50.908;4.204;2022-08-14T02:21:13;5.40;;;4.67;;
15716;SDS011;7960;50.908;4.204;2022-08-14T02:23:43;5.23;;;4.83;;
15716;SDS011;7960;50.908;4.204;2022-08-14T02:26:17;5.10;;;4.67;;
15716;SDS011;7960;50.908;4.204;2022-08-14T02:28:47;6.87;;;4.73;;
15716;SDS011;7960;50.908;4.204;2022-08-14T02:31:16;4.87;;;4.37;;
15716;SDS011;7960;50.908;4.204;2022-08-14T02:33:44;7.43;;;4.80;;
15716;SDS011;7960;50.908;4.204;2022-08-14T02:36:12;5.00;;;4.50;;
15716;SDS011;7960;50.908;4.204;2022-08-14T02:38:39;5.87;;;4.57;;
15716;SDS011;7960;50.908;4.204;2022-08-14T02:41:07;7.40;;;4.90;;
15716;SDS011;7960;50.908;4.204;2022-08-14T02:43:38;4.70;;;4.30;;
15716;SDS011;7960;50.908;4.204;2022-08-14T02:46:07;25.03;;;6.00;;
15716;SDS011;7960;50.908;4.204;2022-08-14T02:48:37;6.53;;;4.17;;
15716;SDS011;7960;50.908;4.204;2022-08-14T02:51:06;9.43;;;4.20;;
15716;SDS011;7960;50.908;4.204;2022-08-14T02:53:34;8.83;;;4.40;;
15716;SDS011;7960;50.908;4.204;2022-08-14T02:56:04;4.87;;;4.47;;
15716;SDS011;7960;50.908;4.204;2022-08-14T02:58:31;11.00;;;5.13;;
15716;SDS011;7960;50.908;4.204;2022-08-14T03:01:02;6.03;;;5.03;;
15716;SDS011;7960;50.908;4.204;2022-08-14T03:03:30;5.73;;;5.13;;
15716;SDS011;7960;50.908;4.204;2022-08-14T03:05:57;5.60;;;5.07;;
15716;SDS011;7960;50.908;4.204;2022-08-14T03:08:25;5.90;;;5.40;;
15716;SDS011;7960;50.908;4.204;2022-08-14T03:10:56;5.97;;;4.90;;
15716;SDS011;7960;50.908;4.204;2022-08-14T03:13:23;5.63;;;5.10;;
15716;SDS011;7960;50.908;4.204;2022-08-14T03:15:51;5.63;;;5.13;;
15716;SDS011;7960;50.908;4.204;2022-08-14T03:18:20;8.07;;;4.70;;
15716;SDS011;7960;50.908;4.204;2022-08-14T03:20:48;5.20;;;4.70;;
15716;SDS011;7960;50.908;4.204;2022-08-14T03:23:15;4.90;;;4.40;;
15716;SDS011;7960;50.908;4.204;2022-08-14T03:25:42;5.63;;;4.40;;
15716;SDS011;7960;50.908;4.204;2022-08-14T03:28:10;5.57;;;4.37;;
15716;SDS011;7960;50.908;4.204;2022-08-14T03:30:39;6.43;;;4.30;;
15716;SDS011;7960;50.908;4.204;2022-08-14T03:33:07;5.90;;;4.00;;
15716;SDS011;7960;50.908;4.204;2022-08-14T03:35:36;5.90;;;3.90;;
15716;SDS011;7960;50.908;4.204;2022-08-14T03:38:06;8.00;;;4.80;;
15716;SDS011;7960;50.908;4.204;2022-08-14T03:40:34;4.57;;;4.07;;
15716;SDS011;7960;50.908;4.204;2022-08-14T03:43:03;7.07;;;4.57;;
15716;SDS011;7960;50.908;4.204;2022-08-14T03:45:31;4.70;;;4.13;;
15716;SDS011;7960;50.908;4.204;2022-08-14T03:48:00;6.83;;;4.53;;
15716;SDS011;7960;50.908;4.204;2022-08-14T03:50:28;7.00;;;4.77;;
15716;SDS011;7960;50.908;4.204;2022-08-14T03:52:57;5.47;;;4.13;;
15716;SDS011;7960;50.908;4.204;2022-08-14T03:55:25;5.47;;;3.90;;
15716;SDS011;7960;50.908;4.204;2022-08-14T03:57:52;5.23;;;4.03;;
15716;SDS011;7960;50.908;4.204;2022-08-14T04:00:20;4.30;;;3.90;;
15716;SDS011;7960;50.908;4.204;2022-08-14T04:02:47;5.07;;;4.10;;
15716;SDS011;7960;50.908;4.204;2022-08-14T04:05:14;4.70;;;4.23;;
15716;SDS011;7960;50.908;4.204;2022-08-14T04:07:41;5.03;;;4.50;;
15716;SDS011;7960;50.908;4.204;2022-08-14T04:10:10;4.90;;;4.40;;
15716;SDS011;7960;50.908;4.204;2022-08-14T04:12:36;6.57;;;4.43;;
15716;SDS011;7960;50.908;4.204;2022-08-14T04:15:04;5.00;;;4.40;;
15716;SDS011;7960;50.908;4.204;2022-08-14T04:17:32;10.70;;;4.87;;
15716;SDS011;7960;50.908;4.204;2022-08-14T04:19:59;5.93;;;4.33;;
15716;SDS011;7960;50.908;4.204;2022-08-14T04:22:29;5.90;;;4.53;;
15716;SDS011;7960;50.908;4.204;2022-08-14T04:24:56;5.90;;;5.33;;
15716;SDS011;7960;50.908;4.204;2022-08-14T04:27:24;6.97;;;5.10;;
15716;SDS011;7960;50.908;4.204;2022-08-14T04:29:52;8.30;;;6.13;;
15716;SDS011;7960;50.908;4.204;2022-08-14T04:32:21;7.10;;;6.40;;
15716;SDS011;7960;50.908;4.204;2022-08-14T04:34:51;8.37;;;6.20;;
15716;SDS011;7960;50.908;4.204;2022-08-14T04:37:19;7.30;;;6.57;;
15716;SDS011;7960;50.908;4.204;2022-08-14T04:40:04;7.67;;;6.23;;
15716;SDS011;7960;50.908;4.204;2022-08-14T04:42:50;7.43;;;6.00;;
15716;SDS011;7960;50.908;4.204;2022-08-14T04:45:34;8.30;;;6.10;;
15716;SDS011;7960;50.908;4.204;2022-08-14T04:48:04;9.17;;;6.03;;
15716;SDS011;7960;50.908;4.204;2022-08-14T04:50:38;7.10;;;5.97;;
15716;SDS011;7960;50.908;4.204;2022-08-14T04:53:07;6.40;;;5.67;;
15716;SDS011;7960;50.908;4.204;2022-08-14T04:55:37;16.83;;;7.30;;
15716;SDS011;7960;50.908;4.204;2022-08-14T04:58:06;7.67;;;5.57;;
15716;SDS011;7960;50.908;4.204;2022-08-14T05:00:33;5.40;;;4.90;;
15716;SDS011;7960;50.908;4.204;2022-08-14T05:03:00;5.27;;;4.70;;
15716;SDS011;7960;50.908;4.204;2022-08-14T05:05:28;6.43;;;5.50;;
15716;SDS011;7960;50.908;4.204;2022-08-14T05:07:55;6.37;;;5.40;;
15716;SDS011;7960;50.908;4.204;2022-08-14T05:10:30;8.23;;;5.20;;
15716;SDS011;7960;50.908;4.204;2022-08-14T05:12:57;7.20;;;5.17;;
15716;SDS011;7960;50.908;4.204;2022-08-14T05:15:25;7.67;;;5.40;;
15716;SDS011;7960;50.908;4.204;2022-08-14T05:17:54;7.00;;;5.10;;
15716;SDS011;7960;50.908;4.204;2022-08-14T05:20:21;5.50;;;5.00;;
15716;SDS011;7960;50.908;4.204;2022-08-14T05:22:49;6.07;;;5.20;;
15716;SDS011;7960;50.908;4.204;2022-08-14T05:25:16;6.70;;;5.20;;
15716;SDS011;7960;50.908;4.204;2022-08-14T05:27:44;5.50;;;5.00;;
15716;SDS011;7960;50.908;4.204;2022-08-14T05:30:11;6.57;;;4.97;;
15716;SDS011;7960;50.908;4.204;2022-08-14T05:32:40;9.80;;;5.80;;
15716;SDS011;7960;50.908;4.204;2022-08-14T05:35:07;6.60;;;5.40;;
15716;SDS011;7960;50.908;4.204;2022-08-14T05:37:35;8.03;;;5.20;;
15716;SDS011;7960;50.908;4.204;2022-08-14T05:40:03;8.20;;;5.10;;
15716;SDS011;7960;50.908;4.204;2022-08-14T05:42:32;18.30;;;5.50;;
15716;SDS011;7960;50.908;4.204;2022-08-14T05:44:59;6.87;;;5.00;;
15716;SDS011;7960;50.908;4.204;2022-08-14T05:47:26;5.57;;;4.97;;
15716;SDS011;7960;50.908;4.204;2022-08-14T05:49:54;5.10;;;4.60;;
15716;SDS011;7960;50.908;4.204;2022-08-14T05:52:22;5.50;;;4.90;;
15716;SDS011;7960;50.908;4.204;2022-08-14T05:54:49;7.97;;;4.77;;
15716;SDS011;7960;50.908;4.204;2022-08-14T05:57:16;6.50;;;5.03;;
15716;SDS011;7960;50.908;4.204;2022-08-14T05:59:44;5.90;;;4.70;;
15716;SDS011;7960;50.908;4.204;2022-08-14T06:02:10;5.30;;;4.80;;
15716;SDS011;7960;50.908;4.204;2022-08-14T06:04:37;6.57;;;4.80;;
15716;SDS011;7960;50.908;4.204;2022-08-14T06:07:13;5.27;;;4.77;;
15716;SDS011;7960;50.908;4.204;2022-08-14T06:09:41;7.47;;;5.20;;
15716;SDS011;7960;50.908;4.204;2022-08-14T06:12:08;5.07;;;4.67;;
15716;SDS011;7960;50.908;4.204;2022-08-14T06:14:36;6.30;;;5.30;;
15716;SDS011;7960;50.908;4.204;2022-08-14T06:17:03;7.53;;;5.20;;
15716;SDS011;7960;50.908;4.204;2022-08-14T06:19:30;8.77;;;5.40;;
15716;SDS011;7960;50.908;4.204;2022-08-14T06:21:57;6.83;;;4.93;;
15716;SDS011;7960;50.908;4.204;2022-08-14T06:24:25;6.27;;;4.83;;
15716;SDS011;7960;50.908;4.204;2022-08-14T06:26:53;5.10;;;4.70;;
15716;SDS011;7960;50.908;4.204;2022-08-14T06:29:20;5.13;;;4.60;;
15716;SDS011;7960;50.908;4.204;2022-08-14T06:31:47;6.37;;;5.00;;
15716;SDS011;7960;50.908;4.204;2022-08-14T06:34:14;7.43;;;4.67;;
15716;SDS011;7960;50.908;4.204;2022-08-14T06:36:41;5.40;;;4.90;;
15716;SDS011;7960;50.908;4.204;2022-08-14T06:39:08;5.87;;;4.90;;
15716;SDS011;7960;50.908;4.204;2022-08-14T06:41:37;5.13;;;4.63;;
15716;SDS011;7960;50.908;4.204;2022-08-14T06:44:04;12.83;;;5.90;;
15716;SDS011;7960;50.908;4.204;2022-08-14T06:46:31;6.37;;;5.30;;
15716;SDS011;7960;50.908;4.204;2022-08-14T06:48:58;4.87;;;4.47;;
15716;SDS011;7960;50.908;4.204;2022-08-14T06:51:24;5.60;;;4.70;;
15716;SDS011;7960;50.908;4.204;2022-08-14T06:53:51;5.70;;;5.10;;
15716;SDS011;7960;50.908;4.204;2022-08-14T06:56:19;7.27;;;5.17;;
15716;SDS011;7960;50.908;4.204;2022-08-14T06:58:49;5.87;;;5.20;;
15716;SDS011;7960;50.908;4.204;2022-08-14T07:01:16;5.83;;;5.33;;
15716;SDS011;7960;50.908;4.204;2022-08-14T07:04:00;5.93;;;5.33;;
15716;SDS011;7960;50.908;4.204;2022-08-14T07:06:44;6.10;;;5.43;;
15716;SDS011;7960;50.908;4.204;2022-08-14T07:09:11;6.13;;;5.57;;
15716;SDS011;7960;50.908;4.204;2022-08-14T07:11:38;6.03;;;5.43;;
15716;SDS011;7960;50.908;4.204;2022-08-14T07:14:07;6.43;;;5.90;;
15716;SDS011;7960;50.908;4.204;2022-08-14T07:16:34;7.87;;;6.07;;
15716;SDS011;7960;50.908;4.204;2022-08-14T07:19:01;10.50;;;6.00;;
15716;SDS011;7960;50.908;4.204;2022-08-14T07:21:29;7.60;;;6.90;;
15716;SDS011;7960;50.908;4.204;2022-08-14T07:23:55;7.47;;;6.03;;
15716;SDS011;7960;50.908;4.204;2022-08-14T07:26:22;7.10;;;6.20;;
15716;SDS011;7960;50.908;4.204;2022-08-14T07:28:49;7.03;;;5.93;;
15716;SDS011;7960;50.908;4.204;2022-08-14T07:31:18;8.53;;;6.30;;
15716;SDS011;7960;50.908;4.204;2022-08-14T07:33:45;7.20;;;6.50;;
15716;SDS011;7960;50.908;4.204;2022-08-14T07:36:14;7.30;;;6.70;;
15716;SDS011;7960;50.908;4.204;2022-08-14T07:38:41;6.93;;;6.33;;
15716;SDS011;7960;50.908;4.204;2022-08-14T07:41:09;8.80;;;6.47;;
15716;SDS011;7960;50.908;4.204;2022-08-14T07:43:37;10.65;;;7.18;;
15716;SDS011;7960;50.908;4.204;2022-08-14T07:46:05;8.87;;;6.63;;
15716;SDS011;7960;50.908;4.204;2022-08-14T07:48:37;7.28;;;6.50;;
15716;SDS011;7960;50.908;4.204;2022-08-14T07:51:05;7.82;;;6.78;;
15716;SDS011;7960;50.908;4.204;2022-08-14T07:53:33;8.38;;;6.50;;
15716;SDS011;7960;50.908;4.204;2022-08-14T07:56:00;6.97;;;6.38;;
15716;SDS011;7960;50.908;4.204;2022-08-14T07:58:27;7.15;;;6.50;;
15716;SDS011;7960;50.908;4.204;2022-08-14T08:00:54;6.93;;;6.32;;
15716;SDS011;7960;50.908;4.204;2022-08-14T08:03:23;10.98;;;7.05;;
15716;SDS011;7960;50.908;4.204;2022-08-14T08:05:53;8.93;;;6.72;;
15716;SDS011;7960;50.908;4.204;2022-08-14T08:08:20;8.48;;;6.78;;
15716;SDS011;7960;50.908;4.204;2022-08-14T08:10:51;6.85;;;6.22;;
15716;SDS011;7960;50.908;4.204;2022-08-14T08:13:21;6.82;;;6.22;;
15716;SDS011;7960;50.908;4.204;2022-08-14T08:15:48;14.25;;;8.05;;
15716;SDS011;7960;50.908;4.204;2022-08-14T08:18:18;8.50;;;7.03;;
15716;SDS011;7960;50.908;4.204;2022-08-14T08:20:46;12.15;;;7.57;;
15716;SDS011;7960;50.908;4.204;2022-08-14T08:23:17;6.90;;;6.30;;
15716;SDS011;7960;50.908;4.204;2022-08-14T08:25:45;8.65;;;6.45;;
15716;SDS011;7960;50.908;4.204;2022-08-14T08:28:15;6.93;;;6.22;;
15716;SDS011;7960;50.908;4.204;2022-08-14T08:30:46;6.30;;;5.80;;
15716;SDS011;7960;50.908;4.204;2022-08-14T08:33:14;6.20;;;5.70;;
15716;SDS011;7960;50.908;4.204;2022-08-14T08:35:41;8.45;;;6.15;;
15716;SDS011;7960;50.908;4.204;2022-08-14T08:38:09;10.55;;;6.47;;
15716;SDS011;7960;50.908;4.204;2022-08-14T08:40:40;7.15;;;6.40;;
15716;SDS011;7960;50.908;4.204;2022-08-14T08:43:14;6.57;;;5.55;;
15716;SDS011;7960;50.908;4.204;2022-08-14T08:45:43;7.35;;;5.35;;
15716;SDS011;7960;50.908;4.204;2022-08-14T08:48:15;6.18;;;5.47;;
15716;SDS011;7960;50.908;4.204;2022-08-14T08:50:42;6.00;;;5.40;;
15716;SDS011;7960;50.908;4.204;2022-08-14T08:53:09;5.20;;;4.80;;
15716;SDS011;7960;50.908;4.204;2022-08-14T08:55:37;5.47;;;5.00;;
15716;SDS011;7960;50.908;4.204;2022-08-14T08:58:08;5.55;;;5.03;;
15716;SDS011;7960;50.908;4.204;2022-08-14T09:00:36;5.82;;;5.13;;
15716;SDS011;7960;50.908;4.204;2022-08-14T09:03:07;5.72;;;4.90;;
15716;SDS011;7960;50.908;4.204;2022-08-14T09:05:35;5.10;;;4.40;;
15716;SDS011;7960;50.908;4.204;2022-08-14T09:08:10;6.32;;;4.68;;
15716;SDS011;7960;50.908;4.204;2022-08-14T09:10:40;5.30;;;4.90;;
15716;SDS011;7960;50.908;4.204;2022-08-14T09:13:07;5.10;;;4.40;;
15716;SDS011;7960;50.908;4.204;2022-08-14T09:15:36;4.53;;;4.10;;
15716;SDS011;7960;50.908;4.204;2022-08-14T09:18:05;5.20;;;4.70;;
15716;SDS011;7960;50.908;4.204;2022-08-14T09:20:33;7.32;;;5.00;;
15716;SDS011;7960;50.908;4.204;2022-08-14T09:23:01;4.38;;;4.03;;
15716;SDS011;7960;50.908;4.204;2022-08-14T09:25:29;4.95;;;4.25;;
15716;SDS011;7960;50.908;4.204;2022-08-14T09:27:58;5.88;;;4.13;;
15716;SDS011;7960;50.908;4.204;2022-08-14T09:30:25;4.43;;;4.07;;
15716;SDS011;7960;50.908;4.204;2022-08-14T09:32:59;5.00;;;4.38;;
15716;SDS011;7960;50.908;4.204;2022-08-14T09:35:39;8.98;;;4.63;;
15716;SDS011;7960;50.908;4.204;2022-08-14T09:38:16;7.05;;;4.18;;
15716;SDS011;7960;50.908;4.204;2022-08-14T09:40:54;4.40;;;4.00;;
15716;SDS011;7960;50.908;4.204;2022-08-14T09:43:30;5.13;;;3.72;;
15716;SDS011;7960;50.908;4.204;2022-08-14T09:46:05;4.10;;;3.70;;
15716;SDS011;7960;50.908;4.204;2022-08-14T09:48:33;3.90;;;3.60;;
15716;SDS011;7960;50.908;4.204;2022-08-14T09:51:01;4.43;;;3.78;;
15716;SDS011;7960;50.908;4.204;2022-08-14T09:53:33;4.00;;;3.60;;
15716;SDS011;7960;50.908;4.204;2022-08-14T09:56:06;4.07;;;3.78;;
15716;SDS011;7960;50.908;4.204;2022-08-14T09:58:38;3.97;;;3.53;;
15716;SDS011;7960;50.908;4.204;2022-08-14T10:01:08;4.35;;;3.30;;
15716;SDS011;7960;50.908;4.204;2022-08-14T10:03:37;3.30;;;3.10;;
15716;SDS011;7960;50.908;4.204;2022-08-14T10:06:13;5.60;;;3.78;;
15716;SDS011;7960;50.908;4.204;2022-08-14T10:08:44;3.08;;;2.83;;
15716;SDS011;7960;50.908;4.204;2022-08-14T10:11:16;3.05;;;2.80;;
15716;SDS011;7960;50.908;4.204;2022-08-14T10:13:47;3.67;;;3.38;;
15716;SDS011;7960;50.908;4.204;2022-08-14T10:16:18;3.53;;;3.13;;
15716;SDS011;7960;50.908;4.204;2022-08-14T10:19:00;4.10;;;3.08;;
15716;SDS011;7960;50.908;4.204;2022-08-14T10:21:29;6.13;;;3.20;;
15716;SDS011;7960;50.908;4.204;2022-08-14T10:23:56;3.30;;;3.00;;
15716;SDS011;7960;50.908;4.204;2022-08-14T10:26:23;3.35;;;3.15;;
15716;SDS011;7960;50.908;4.204;2022-08-14T10:28:51;3.47;;;3.13;;
15716;SDS011;7960;50.908;4.204;2022-08-14T10:31:21;5.32;;;3.25;;
15716;SDS011;7960;50.908;4.204;2022-08-14T10:33:57;3.22;;;2.92;;
15716;SDS011;7960;50.908;4.204;2022-08-14T10:36:25;4.72;;;3.10;;
15716;SDS011;7960;50.908;4.204;2022-08-14T10:38:57;4.57;;;2.92;;
15716;SDS011;7960;50.908;4.204;2022-08-14T10:41:33;3.20;;;3.00;;
15716;SDS011;7960;50.908;4.204;2022-08-14T10:44:08;3.25;;;3.00;;
15716;SDS011;7960;50.908;4.204;2022-08-14T10:46:41;3.35;;;3.15;;
15716;SDS011;7960;50.908;4.204;2022-08-14T10:49:16;4.93;;;2.80;;
15716;SDS011;7960;50.908;4.204;2022-08-14T10:51:54;3.20;;;2.90;;
15716;SDS011;7960;50.908;4.204;2022-08-14T10:54:37;3.90;;;3.20;;
15716;SDS011;7960;50.908;4.204;2022-08-14T10:57:10;5.47;;;3.30;;
15716;SDS011;7960;50.908;4.204;2022-08-14T10:59:48;3.22;;;3.03;;
15716;SDS011;7960;50.908;4.204;2022-08-14T11:02:25;3.20;;;2.90;;
15716;SDS011;7960;50.908;4.204;2022-08-14T11:04:58;3.55;;;3.20;;
15716;SDS011;7960;50.908;4.204;2022-08-14T11:07:35;3.78;;;3.25;;
15716;SDS011;7960;50.908;4.204;2022-08-14T11:10:05;5.13;;;3.35;;
15716;SDS011;7960;50.908;4.204;2022-08-14T11:12:41;3.92;;;3.25;;
15716;SDS011;7960;50.908;4.204;2022-08-14T11:15:16;6.75;;;3.42;;
15716;SDS011;7960;50.908;4.204;2022-08-14T11:17:44;4.35;;;3.30;;
15716;SDS011;7960;50.908;4.204;2022-08-14T11:20:13;3.92;;;3.47;;
15716;SDS011;7960;50.908;4.204;2022-08-14T11:22:41;4.53;;;3.42;;
15716;SDS011;7960;50.908;4.204;2022-08-14T11:25:09;3.63;;;3.33;;
15716;SDS011;7960;50.908;4.204;2022-08-14T11:27:38;3.60;;;3.40;;
15716;SDS011;7960;50.908;4.204;2022-08-14T11:30:08;4.30;;;3.33;;
15716;SDS011;7960;50.908;4.204;2022-08-14T11:32:39;3.63;;;3.33;;
15716;SDS011;7960;50.908;4.204;2022-08-14T11:35:10;3.83;;;3.53;;
15716;SDS011;7960;50.908;4.204;2022-08-14T11:37:50;3.20;;;3.00;;
15716;SDS011;7960;50.908;4.204;2022-08-14T11:40:18;3.38;;;3.15;;
15716;SDS011;7960;50.908;4.204;2022-08-14T11:42:47;6.85;;;4.30;;
15716;SDS011;7960;50.908;4.204;2022-08-14T11:45:20;3.53;;;3.22;;
15716;SDS011;7960;50.908;4.204;2022-08-14T11:47:50;3.72;;;3.25;;
15716;SDS011;7960;50.908;4.204;2022-08-14T11:50:19;3.97;;;3.58;;
15716;SDS011;7960;50.908;4.204;2022-08-14T11:52:48;4.03;;;3.50;;
15716;SDS011;7960;50.908;4.204;2022-08-14T11:55:16;5.30;;;3.33;;
15716;SDS011;7960;50.908;4.204;2022-08-14T11:57:43;3.60;;;3.30;;
15716;SDS011;7960;50.908;4.204;2022-08-14T12:00:11;3.40;;;3.20;;
15716;SDS011;7960;50.908;4.204;2022-08-14T12:02:53;3.40;;;3.10;;
15716;SDS011;7960;50.908;4.204;2022-08-14T12:05:31;4.75;;;3.22;;
15716;SDS011;7960;50.908;4.204;2022-08-14T12:07:59;3.90;;;3.60;;
15716;SDS011;7960;50.908;4.204;2022-08-14T12:10:29;4.53;;;3.25;;
15716;SDS011;7960;50.908;4.204;2022-08-14T12:12:57;4.65;;;3.13;;
15716;SDS011;7960;50.908;4.204;2022-08-14T12:15:27;4.13;;;3.38;;
15716;SDS011;7960;50.908;4.204;2022-08-14T12:17:59;3.67;;;3.17;;
15716;SDS011;7960;50.908;4.204;2022-08-14T12:20:27;3.85;;;3.55;;
15716;SDS011;7960;50.908;4.204;2022-08-14T12:22:55;3.33;;;3.10;;
15716;SDS011;7960;50.908;4.204;2022-08-14T12:25:24;3.47;;;3.15;;
15716;SDS011;7960;50.908;4.204;2022-08-14T12:27:52;3.85;;;3.55;;
15716;SDS011;7960;50.908;4.204;2022-08-14T12:30:25;3.50;;;3.30;;
15716;SDS011;7960;50.908;4.204;2022-08-14T12:32:53;3.47;;;3.28;;
15716;SDS011;7960;50.908;4.204;2022-08-14T12:35:26;5.95;;;3.20;;
15716;SDS011;7960;50.908;4.204;2022-08-14T12:38:01;3.75;;;3.03;;
15716;SDS011;7960;50.908;4.204;2022-08-14T12:40:29;3.95;;;3.30;;
15716;SDS011;7960;50.908;4.204;2022-08-14T12:42:58;3.28;;;3.08;;
15716;SDS011;7960;50.908;4.204;2022-08-14T12:45:31;5.22;;;2.88;;
15716;SDS011;7960;50.908;4.204;2022-08-14T12:48:00;2.90;;;2.70;;
15716;SDS011;7960;50.908;4.204;2022-08-14T12:50:37;2.90;;;2.70;;
15716;SDS011;7960;50.908;4.204;2022-08-14T12:53:06;3.00;;;2.78;;
15716;SDS011;7960;50.908;4.204;2022-08-14T12:55:33;4.22;;;2.50;;
15716;SDS011;7960;50.908;4.204;2022-08-14T12:58:01;4.03;;;2.90;;
15716;SDS011;7960;50.908;4.204;2022-08-14T13:00:30;2.97;;;2.67;;
15716;SDS011;7960;50.908;4.204;2022-08-14T13:02:59;3.85;;;2.80;;
15716;SDS011;7960;50.908;4.204;2022-08-14T13:05:29;3.00;;;2.80;;
15716;SDS011;7960;50.908;4.204;2022-08-14T13:08:02;6.78;;;3.22;;
15716;SDS011;7960;50.908;4.204;2022-08-14T13:10:31;3.13;;;2.58;;
15716;SDS011;7960;50.908;4.204;2022-08-14T13:12:59;3.97;;;2.80;;
15716;SDS011;7960;50.908;4.204;2022-08-14T13:15:26;4.88;;;2.88;;
15716;SDS011;7960;50.908;4.204;2022-08-14T13:17:54;4.28;;;2.70;;
15716;SDS011;7960;50.908;4.204;2022-08-14T13:20:22;2.95;;;2.75;;
15716;SDS011;7960;50.908;4.204;2022-08-14T13:22:51;3.10;;;2.90;;
15716;SDS011;7960;50.908;4.204;2022-08-14T13:25:21;3.05;;;2.85;;
15716;SDS011;7960;50.908;4.204;2022-08-14T13:27:50;3.28;;;2.85;;
15716;SDS011;7960;50.908;4.204;2022-08-14T13:30:20;4.80;;;2.85;;
15716;SDS011;7960;50.908;4.204;2022-08-14T13:32:49;6.57;;;3.30;;
15716;SDS011;7960;50.908;4.204;2022-08-14T13:35:17;4.07;;;3.20;;
15716;SDS011;7960;50.908;4.204;2022-08-14T13:37:44;3.40;;;3.10;;
15716;SDS011;7960;50.908;4.204;2022-08-14T13:40:14;6.32;;;3.17;;
15716;SDS011;7960;50.908;4.204;2022-08-14T13:42:43;7.97;;;3.55;;
15716;SDS011;7960;50.908;4.204;2022-08-14T13:45:12;2.95;;;2.67;;
15716;SDS011;7960;50.908;4.204;2022-08-14T13:47:40;3.85;;;2.80;;
15716;SDS011;7960;50.908;4.204;2022-08-14T13:50:09;2.90;;;2.70;;
15716;SDS011;7960;50.908;4.204;2022-08-14T13:52:40;3.50;;;3.00;;
15716;SDS011;7960;50.908;4.204;2022-08-14T13:55:09;4.88;;;3.05;;
15716;SDS011;7960;50.908;4.204;2022-08-14T13:57:38;3.85;;;3.28;;
15716;SDS011;7960;50.908;4.204;2022-08-14T14:00:08;3.83;;;3.47;;
15716;SDS011;7960;50.908;4.204;2022-08-14T14:02:37;3.42;;;3.15;;
15716;SDS011;7960;50.908;4.204;2022-08-14T14:05:05;3.50;;;3.15;;
15716;SDS011;7960;50.908;4.204;2022-08-14T14:07:34;3.05;;;2.85;;
15716;SDS011;7960;50.908;4.204;2022-08-14T14:10:03;3.15;;;2.70;;
15716;SDS011;7960;50.908;4.204;2022-08-14T14:12:32;2.85;;;2.65;;
15716;SDS011;7960;50.908;4.204;2022-08-14T14:15:01;3.22;;;2.88;;
15716;SDS011;7960;50.908;4.204;2022-08-14T14:17:32;3.13;;;2.88;;
15716;SDS011;7960;50.908;4.204;2022-08-14T14:20:00;4.75;;;2.97;;
15716;SDS011;7960;50.908;4.204;2022-08-14T14:22:29;3.08;;;2.78;;
15716;SDS011;7960;50.908;4.204;2022-08-14T14:24:57;3.03;;;2.83;;
15716;SDS011;7960;50.908;4.204;2022-08-14T14:27:24;2.95;;;2.70;;
15716;SDS011;7960;50.908;4.204;2022-08-14T14:29:55;3.10;;;2.80;;
15716;SDS011;7960;50.908;4.204;2022-08-14T14:32:27;5.60;;;2.67;;
15716;SDS011;7960;50.908;4.204;2022-08-14T14:34:58;2.90;;;2.70;;
15716;SDS011;7960;50.908;4.204;2022-08-14T14:37:27;4.50;;;2.95;;
15716;SDS011;7960;50.908;4.204;2022-08-14T14:39:55;5.70;;;2.70;;
15716;SDS011;7960;50.908;4.204;2022-08-14T14:42:24;4.13;;;2.90;;
15716;SDS011;7960;50.908;4.204;2022-08-14T14:44:55;3.13;;;2.85;;
15716;SDS011;7960;50.908;4.204;2022-08-14T14:47:26;3.42;;;2.90;;
15716;SDS011;7960;50.908;4.204;2022-08-14T14:49:54;3.13;;;2.85;;
15716;SDS011;7960;50.908;4.204;2022-08-14T14:52:23;3.15;;;2.85;;
15716;SDS011;7960;50.908;4.204;2022-08-14T14:54:50;3.00;;;2.80;;
15716;SDS011;7960;50.908;4.204;2022-08-14T14:57:17;3.45;;;3.15;;
15716;SDS011;7960;50.908;4.204;2022-08-14T14:59:44;3.20;;;3.00;;
15716;SDS011;7960;50.908;4.204;2022-08-14T15:02:13;4.78;;;2.78;;
15716;SDS011;7960;50.908;4.204;2022-08-14T15:04:47;2.90;;;2.70;;
15716;SDS011;7960;50.908;4.204;2022-08-14T15:07:15;3.38;;;3.10;;
15716;SDS011;7960;50.908;4.204;2022-08-14T15:09:45;3.33;;;3.03;;
15716;SDS011;7960;50.908;4.204;2022-08-14T15:12:12;3.38;;;2.80;;
15716;SDS011;7960;50.908;4.204;2022-08-14T15:14:39;4.07;;;3.00;;